Time;durP1;ratioP1;P1;durP2;ratioP2;P2;SDS_P1;SDS_P2;PMS_P1;PMS_P2;Temp;Humidity;BMP_temperature;BMP_pressure;BME280_temperature;BME280_humidity;BME280_pressure;Samples;Min_cycle;Max_cycle;Signal;HPM_P1;HPM_P2
2022/10/16 00:00:06;;;;;;;;;3.00;2.20;;;;;14.78;80.64;99401.03;5095227;28;8879;-63
2022/10/16 00:02:34;;;;;;;;;3.20;2.20;;;;;14.75;80.42;99396.00;5095406;28;8810;-60
2022/10/16 00:05:02;;;;;;;;;1.40;1.40;;;;;14.72;80.48;99394.50;5094725;28;8841;-61
2022/10/16 00:07:29;;;;;;;;;3.00;3.00;;;;;14.72;81.28;99391.81;5093673;28;8873;-62
2022/10/16 00:09:57;;;;;;;;;3.00;3.00;;;;;14.71;81.18;99389.31;5093726;28;8841;-61
2022/10/16 00:12:25;;;;;;;;;3.00;3.00;;;;;14.69;80.49;99392.13;5093766;28;8822;-61
2022/10/16 00:14:53;;;;;;;;;1.00;1.00;;;;;14.67;80.54;99395.97;5093765;28;8854;-61
2022/10/16 00:17:21;;;;;;;;;1.40;1.00;;;;;14.65;80.66;99396.13;5093905;28;8838;-60
2022/10/16 00:19:48;;;;;;;;;3.20;3.00;;;;;14.65;80.73;99400.66;5094006;28;8811;-60
2022/10/16 00:22:16;;;;;;;;;1.00;1.00;;;;;14.61;80.49;99407.34;5094658;28;8818;-62
2022/10/16 00:24:44;;;;;;;;;1.00;1.00;;;;;14.58;80.83;99407.66;5095079;28;8895;-62
2022/10/16 00:27:12;;;;;;;;;3.50;2.75;;;;;14.57;81.11;99414.03;5094938;28;8911;-62
2022/10/16 00:29:40;;;;;;;;;3.00;3.00;;;;;14.56;80.87;99412.34;5095920;28;9742;-61
2022/10/16 00:32:08;;;;;;;;;0.00;0.00;;;;;14.55;80.98;99406.13;5098737;28;8880;-59
2022/10/16 00:34:35;;;;;;;;;1.00;1.00;;;;;14.53;80.99;99408.16;5098988;28;8822;-61
2022/10/16 00:37:03;;;;;;;;;3.00;3.00;;;;;14.51;81.34;99403.94;5098008;28;8822;-59
2022/10/16 00:39:31;;;;;;;;;1.00;1.00;;;;;14.49;81.17;99414.81;5097826;28;8895;-62
2022/10/16 00:41:58;;;;;;;;;1.00;1.00;;;;;14.47;80.70;99414.13;5097550;28;8865;-62
2022/10/16 00:44:26;;;;;;;;;3.00;3.00;;;;;14.48;80.88;99409.63;5097716;28;8826;-60
2022/10/16 00:46:54;;;;;;;;;1.00;1.00;;;;;14.48;80.75;99404.28;5096462;28;8880;-59
2022/10/16 00:49:22;;;;;;;;;1.00;1.00;;;;;14.49;81.00;99405.97;5096324;28;8864;-61
2022/10/16 00:51:49;;;;;;;;;3.25;3.00;;;;;14.48;80.51;99409.63;5096951;28;9613;-61
2022/10/16 00:54:17;;;;;;;;;1.40;1.40;;;;;14.48;81.05;99409.63;5097310;28;8856;-59
2022/10/16 00:56:45;;;;;;;;;3.60;2.20;;;;;14.49;80.53;99414.81;5097632;28;8818;-61
2022/10/16 00:59:13;;;;;;;;;1.00;1.00;;;;;14.54;81.00;99408.97;5097284;28;8829;-62
2022/10/16 01:01:40;;;;;;;;;2.50;2.50;;;;;14.58;80.32;99413.84;5097360;28;8877;-62
2022/10/16 01:04:08;;;;;;;;;0.00;0.00;;;;;14.60;80.84;99408.34;5098567;28;8829;-62
2022/10/16 01:06:37;;;;;;;;;1.00;1.00;;;;;14.60;80.49;99413.69;5098331;28;8825;-60
2022/10/16 01:09:05;;;;;;;;;1.00;1.00;;;;;14.56;80.40;99413.19;5097545;28;8822;-61
2022/10/16 01:11:33;;;;;;;;;3.00;2.00;;;;;14.53;80.42;99418.00;5097805;28;8841;-62
2022/10/16 01:14:00;;;;;;;;;1.00;1.00;;;;;14.50;80.85;99418.34;5097683;28;8854;-61
2022/10/16 01:16:28;;;;;;;;;1.00;1.00;;;;;14.47;80.48;99422.19;5097603;28;8903;-62
2022/10/16 01:18:55;;;;;;;;;3.00;3.00;;;;;14.45;81.16;99410.78;5097883;28;8826;-61
2022/10/16 01:21:23;;;;;;;;;3.00;1.50;;;;;14.43;80.84;99417.31;5097660;28;8826;-61
2022/10/16 01:23:51;;;;;;;;;2.60;2.60;;;;;14.41;80.96;99413.94;5098115;28;8903;-62
2022/10/16 01:26:19;;;;;;;;;1.00;1.00;;;;;14.37;80.53;99409.91;5098324;28;8822;-62
2022/10/16 01:28:47;;;;;;;;;3.00;2.00;;;;;14.37;80.65;99424.16;5096628;28;8821;-61
2022/10/16 01:31:14;;;;;;;;;3.00;3.00;;;;;14.39;80.47;99421.28;5096774;28;8834;-61
2022/10/16 01:33:42;;;;;;;;;2.00;2.00;;;;;14.40;81.04;99434.53;5097013;28;8830;-62
2022/10/16 01:36:10;;;;;;;;;3.00;3.00;;;;;14.43;80.51;99431.53;5097335;28;8830;-62
2022/10/16 01:38:38;;;;;;;;;1.00;1.00;;;;;14.48;80.44;99441.78;5097672;28;8821;-62
2022/10/16 01:41:05;;;;;;;;;3.00;2.00;;;;;14.52;80.33;99438.63;5097258;28;8919;-62
2022/10/16 01:43:33;;;;;;;;;1.00;1.00;;;;;14.56;81.04;99442.66;5097251;28;8830;-62
2022/10/16 01:46:01;;;;;;;;;1.00;1.00;;;;;14.57;80.56;99430.94;5097573;28;9527;-59
2022/10/16 01:48:29;;;;;;;;;3.20;3.00;;;;;14.59;79.84;99438.81;5097840;28;8822;-62
2022/10/16 01:50:57;;;;;;;;;1.00;1.00;;;;;14.60;80.17;99427.09;5096819;28;9507;-62
2022/10/16 01:53:25;;;;;;;;;3.20;3.00;;;;;14.60;80.16;99432.47;5096832;28;8838;-61
2022/10/16 01:55:53;;;;;;;;;2.00;2.00;;;;;14.60;80.31;99427.09;5096711;28;8896;-62
2022/10/16 01:58:20;;;;;;;;;3.00;3.00;;;;;14.59;80.53;99428.97;5096681;28;8879;-61
2022/10/16 02:00:48;;;;;;;;;3.00;3.00;;;;;14.60;80.28;99435.13;5096792;28;8834;-61
2022/10/16 02:03:16;;;;;;;;;2.20;1.00;;;;;14.60;80.30;99429.78;5096505;28;8836;-61
2022/10/16 02:05:44;;;;;;;;;3.80;3.80;;;;;14.59;80.85;99425.41;5097504;28;8830;-61
2022/10/16 02:08:12;;;;;;;;;2.60;2.60;;;;;14.58;80.09;99421.88;5097004;28;8826;-61
2022/10/16 02:10:39;;;;;;;;;2.60;2.60;;;;;14.57;80.02;99422.91;5096730;28;8838;-61
2022/10/16 02:13:07;;;;;;;;;1.00;1.00;;;;;14.58;79.99;99431.78;5096906;28;8826;-62
2022/10/16 02:15:35;;;;;;;;;2.20;2.20;;;;;14.56;80.28;99431.13;5096426;28;9492;-61
2022/10/16 02:18:03;;;;;;;;;3.00;3.00;;;;;14.58;80.21;99434.47;5096998;28;8810;-62
2022/10/16 02:20:30;;;;;;;;;1.00;1.00;;;;;14.60;80.30;99432.47;5097232;28;8883;-61
2022/10/16 02:22:58;;;;;;;;;0.60;0.60;;;;;14.60;80.27;99432.47;5097572;28;8875;-60
2022/10/16 02:25:26;;;;;;;;;1.00;1.00;;;;;14.58;80.65;99432.59;5097303;28;8821;-62
2022/10/16 02:27:53;;;;;;;;;1.00;1.00;;;;;14.58;80.36;99429.09;5096233;28;8866;-60
2022/10/16 02:30:21;;;;;;;;;1.00;1.00;;;;;14.59;80.65;99433.47;5096192;28;8936;-61
2022/10/16 02:32:49;;;;;;;;;1.00;0.40;;;;;14.58;80.82;99437.16;5095758;28;8907;-60
2022/10/16 02:35:17;;;;;;;;;3.00;1.00;;;;;14.57;80.31;99430.94;5096626;28;8806;-60
2022/10/16 02:37:44;;;;;;;;;2.60;1.80;;;;;14.56;80.35;99436.47;5096789;28;8818;-59
2022/10/16 02:40:12;;;;;;;;;1.40;1.40;;;;;14.53;80.56;99426.91;5096590;28;8825;-59
2022/10/16 02:42:40;;;;;;;;;1.00;1.00;;;;;14.53;80.36;99428.72;5096655;28;8915;-62
2022/10/16 02:45:08;;;;;;;;;1.00;0.60;;;;;14.52;80.49;99422.56;5096795;28;8846;-62
2022/10/16 02:47:35;;;;;;;;;1.00;1.00;;;;;14.53;80.00;99432.25;5096436;28;8826;-62
2022/10/16 02:50:03;;;;;;;;;3.40;2.60;;;;;14.54;80.42;99439.31;5096648;28;8834;-60
2022/10/16 02:52:31;;;;;;;;;2.60;1.00;;;;;14.55;80.81;99435.63;5095913;28;9302;-61
2022/10/16 02:54:58;;;;;;;;;3.40;1.80;;;;;14.55;80.35;99432.94;5096605;28;8830;-62
2022/10/16 02:57:27;;;;;;;;;2.50;1.00;;;;;14.56;79.99;99437.28;5095982;28;8919;-60
2022/10/16 02:59:55;;;;;;;;;1.80;1.00;;;;;14.57;80.02;99435.47;5096425;28;8830;-62
2022/10/16 03:02:23;;;;;;;;;0.75;0.50;;;;;14.57;80.27;99430.94;5096135;28;8818;-62
2022/10/16 03:04:51;;;;;;;;;1.00;1.00;;;;;14.58;80.12;99431.78;5095602;28;8853;-60
2022/10/16 03:07:19;;;;;;;;;1.00;1.00;;;;;14.61;80.00;99434.13;5095229;28;8818;-62
2022/10/16 03:09:46;;;;;;;;;0.00;0.00;;;;;14.63;80.20;99426.81;5095681;28;8822;-60
2022/10/16 03:12:14;;;;;;;;;1.50;1.50;;;;;14.63;79.49;99430.31;5095666;28;8974;-60
2022/10/16 03:14:42;;;;;;;;;0.80;0.80;;;;;14.65;80.17;99430.16;5095643;28;8838;-62
2022/10/16 03:17:09;;;;;;;;;1.80;1.80;;;;;14.66;80.19;99426.47;5095248;28;8865;-60
2022/10/16 03:19:37;;;;;;;;;0.60;0.60;;;;;14.67;80.06;99425.47;5095408;28;8939;-62
2022/10/16 03:22:05;;;;;;;;;1.80;1.80;;;;;14.67;79.87;99430.81;5096059;28;8826;-62
2022/10/16 03:24:32;;;;;;;;;2.60;1.80;;;;;14.68;79.50;99437.84;5095515;28;8814;-62
2022/10/16 03:27:00;;;;;;;;;0.00;0.00;;;;;14.69;79.89;99436.84;5096461;28;8814;-62
2022/10/16 03:29:29;;;;;;;;;1.00;1.00;;;;;14.71;79.98;99440.25;5095512;28;8854;-61
2022/10/16 03:31:56;;;;;;;;;1.00;1.00;;;;;14.71;80.31;99441.06;5095468;28;8810;-61
2022/10/16 03:34:24;;;;;;;;;1.00;1.00;;;;;14.71;79.58;99426.84;5095136;28;8898;-62
2022/10/16 03:36:52;;;;;;;;;1.00;1.00;;;;;14.71;79.52;99416.13;5096739;28;8838;-62
2022/10/16 03:39:20;;;;;;;;;2.20;2.20;;;;;14.71;79.90;99426.84;5094732;28;8830;-62
2022/10/16 03:41:47;;;;;;;;;1.00;1.00;;;;;14.70;79.55;99425.13;5094634;28;8857;-61
2022/10/16 03:44:15;;;;;;;;;1.00;1.00;;;;;14.68;79.88;99419.94;5094587;28;8830;-61
2022/10/16 03:46:43;;;;;;;;;1.00;1.00;;;;;14.70;79.05;99422.44;5094184;28;8926;-60
2022/10/16 03:49:10;;;;;;;;;1.00;1.00;;;;;14.70;79.44;99419.75;5094601;28;8826;-59
2022/10/16 03:51:38;;;;;;;;;1.00;1.00;;;;;14.69;79.42;99410.91;5095302;28;8834;-60
2022/10/16 03:54:06;;;;;;;;;0.20;0.20;;;;;14.68;79.66;99427.13;5094459;28;8907;-60
2022/10/16 03:56:33;;;;;;;;;1.00;1.00;;;;;14.67;79.82;99441.53;5095835;28;8830;-60
2022/10/16 03:59:01;;;;;;;;;0.20;0.20;;;;;14.69;79.08;99444.91;5096275;28;8818;-60
2022/10/16 04:01:29;;;;;;;;;0.80;0.80;;;;;14.68;79.78;99452.13;5096205;28;8814;-60
2022/10/16 04:03:57;;;;;;;;;2.40;1.00;;;;;14.70;79.60;99438.53;5097550;28;8826;-60
2022/10/16 04:06:25;;;;;;;;;1.40;1.40;;;;;14.70;79.30;99438.53;5100626;28;8826;-59
2022/10/16 04:08:53;;;;;;;;;3.00;1.00;;;;;14.72;79.43;99455.31;5100093;28;9484;-60
2022/10/16 04:11:20;;;;;;;;;1.00;1.00;;;;;14.72;79.64;99445.41;5099467;28;8904;-59
2022/10/16 04:13:48;;;;;;;;;1.00;1.00;;;;;14.71;79.37;99438.38;5099482;28;8873;-59
2022/10/16 04:16:16;;;;;;;;;1.80;1.00;;;;;14.71;79.03;99448.28;5099593;28;8838;-59
2022/10/16 04:18:43;;;;;;;;;1.00;1.00;;;;;14.72;79.63;99450.78;5099274;28;8914;-60
2022/10/16 04:21:11;;;;;;;;;0.00;0.00;;;;;14.70;79.26;99447.41;5098999;28;8904;-59
2022/10/16 04:23:40;;;;;;;;;0.60;0.00;;;;;14.69;79.10;99459.16;5099079;28;8810;-60
2022/10/16 04:26:08;;;;;;;;;1.00;1.00;;;;;14.68;78.95;99456.63;5099369;28;8842;-61
2022/10/16 04:28:36;;;;;;;;;0.00;0.00;;;;;14.67;78.89;99458.47;5099703;28;8849;-61
2022/10/16 04:31:03;;;;;;;;;0.00;0.00;;;;;14.67;79.40;99460.31;5099422;28;8818;-61
2022/10/16 04:33:31;;;;;;;;;1.40;1.40;;;;;14.68;79.48;99472.69;5099458;28;8818;-59
2022/10/16 04:35:59;;;;;;;;;0.40;0.40;;;;;14.67;78.65;99460.31;5099129;28;8903;-59
2022/10/16 04:38:26;;;;;;;;;0.80;0.80;;;;;14.65;79.10;99459.63;5099535;28;8838;-60
2022/10/16 04:40:54;;;;;;;;;3.00;3.00;;;;;14.64;79.27;99480.22;5099481;28;9483;-59
2022/10/16 04:43:22;;;;;;;;;0.20;0.00;;;;;14.63;79.59;99483.06;5099493;28;8903;-60
2022/10/16 04:45:50;;;;;;;;;1.00;1.00;;;;;14.61;79.42;99480.53;5099382;28;8870;-59
2022/10/16 04:48:18;;;;;;;;;0.00;0.00;;;;;14.58;78.93;99475.47;5098319;28;8838;-59
2022/10/16 04:50:46;;;;;;;;;2.00;0.80;;;;;14.61;78.91;99482.38;5098183;28;8846;-59
2022/10/16 04:53:21;;;;;;;;;1.00;0.80;;;;;14.62;78.92;99492.09;5098665;28;8845;-59
2022/10/16 04:55:49;;;;;;;;;0.00;0.00;;;;;14.61;79.30;99490.41;5098312;28;8838;-58
2022/10/16 04:58:16;;;;;;;;;1.80;1.40;;;;;14.59;79.20;99493.28;5098281;28;8838;-60
2022/10/16 05:00:44;;;;;;;;;0.80;0.80;;;;;14.60;78.73;99488.72;5098192;28;8830;-59
2022/10/16 05:03:11;;;;;;;;;1.00;1.00;;;;;14.60;79.38;99488.72;5098601;28;8829;-59
2022/10/16 05:05:40;;;;;;;;;1.00;1.00;;;;;14.62;79.03;99489.41;5098796;28;8814;-61
2022/10/16 05:08:08;;;;;;;;;0.20;0.20;;;;;14.61;79.20;99479.69;5098526;28;8919;-59
2022/10/16 05:10:35;;;;;;;;;1.00;1.00;;;;;14.63;78.90;99485.75;5097703;28;8838;-60
2022/10/16 05:13:03;;;;;;;;;1.00;1.00;;;;;14.64;79.36;99484.75;5098512;28;8825;-60
2022/10/16 05:15:30;;;;;;;;;1.00;1.00;;;;;14.64;79.01;99487.44;5097440;28;8915;-59
2022/10/16 05:17:58;;;;;;;;;1.00;0.00;;;;;14.64;79.27;99498.97;5098441;28;8829;-59
2022/10/16 05:20:26;;;;;;;;;0.60;0.60;;;;;14.65;78.69;99503.34;5098320;28;9034;-60
2022/10/16 05:22:53;;;;;;;;;0.00;0.00;;;;;14.63;79.21;99508.03;5097755;28;8902;-61
2022/10/16 05:25:21;;;;;;;;;1.00;1.00;;;;;14.62;79.01;99511.69;5098060;28;8914;-59
2022/10/16 05:27:49;;;;;;;;;0.80;0.80;;;;;14.62;78.82;99518.88;5098459;28;8818;-59
2022/10/16 05:30:17;;;;;;;;;0.40;0.40;;;;;14.60;78.88;99511.03;5097541;28;9538;-60
2022/10/16 05:32:45;;;;;;;;;0.40;0.40;;;;;14.59;79.26;99520.06;5097515;28;8950;-59
2022/10/16 05:35:12;;;;;;;;;1.40;1.00;;;;;14.57;78.92;99531.94;5097741;28;8846;-59
2022/10/16 05:37:40;;;;;;;;;1.00;0.40;;;;;14.58;78.72;99538.97;5097879;28;8834;-60
2022/10/16 05:40:08;;;;;;;;;2.20;0.40;;;;;14.57;78.67;99542.66;5097730;28;8829;-60
2022/10/16 05:42:37;;;;;;;;;3.00;2.20;;;;;14.56;79.34;99540.97;5097428;28;8837;-59
2022/10/16 05:45:04;;;;;;;;;0.40;0.40;;;;;14.55;79.23;99545.47;5098284;28;8819;-60
2022/10/16 05:47:32;;;;;;;;;0.00;0.00;;;;;14.53;79.50;99546.63;5097585;28;8834;-59
2022/10/16 05:49:59;;;;;;;;;0.40;0.40;;;;;14.53;79.18;99544.81;5097805;28;8849;-59
2022/10/16 05:52:27;;;;;;;;;1.00;1.00;;;;;14.54;79.03;99553.66;5097220;28;8838;-59
2022/10/16 05:54:55;;;;;;;;;0.60;0.60;;;;;14.56;79.16;99552.53;5097284;28;8899;-59
2022/10/16 05:57:22;;;;;;;;;1.00;1.00;;;;;14.58;79.37;99553.19;5097972;28;8931;-59
2022/10/16 05:59:50;;;;;;;;;0.00;0.00;;;;;14.59;79.23;99551.38;5097829;28;8826;-60
2022/10/16 06:02:18;;;;;;;;;1.00;1.00;;;;;14.57;79.14;99542.66;5097067;28;9510;-59
2022/10/16 06:04:45;;;;;;;;;1.00;1.00;;;;;14.56;79.75;99559.75;5097039;28;8814;-59
2022/10/16 06:07:13;;;;;;;;;1.00;1.00;;;;;14.56;79.11;99570.47;5097108;28;8818;-59
2022/10/16 06:09:41;;;;;;;;;2.20;2.20;;;;;14.55;78.83;99576.78;5097093;28;8822;-59
2022/10/16 06:12:09;;;;;;;;;1.00;1.00;;;;;14.55;79.44;99571.44;5096690;28;8910;-59
2022/10/16 06:14:37;;;;;;;;;2.20;1.00;;;;;14.56;79.26;99575.81;5096575;28;8838;-59
2022/10/16 06:17:04;;;;;;;;;1.00;1.00;;;;;14.58;79.33;99584.53;5096663;28;8846;-60
2022/10/16 06:19:32;;;;;;;;;1.00;1.00;;;;;14.60;79.23;99587.91;5096842;28;8918;-59
2022/10/16 06:22:02;;;;;;;;;1.40;1.00;;;;;14.61;79.06;99578.84;5096658;28;9534;-59
2022/10/16 06:24:30;;;;;;;;;1.00;1.00;;;;;14.60;79.44;99579.84;5095749;28;8834;-59
2022/10/16 06:26:57;;;;;;;;;0.00;0.00;;;;;14.60;79.04;99585.22;5095958;28;9539;-58
2022/10/16 06:29:25;;;;;;;;;1.00;1.00;;;;;14.62;79.25;99599.28;5096550;28;8946;-60
2022/10/16 06:31:53;;;;;;;;;1.00;1.00;;;;;14.64;78.92;99598.13;5096010;28;8920;-60
2022/10/16 06:34:21;;;;;;;;;1.00;1.00;;;;;14.69;78.82;99597.66;5095892;28;8835;-61
2022/10/16 06:36:49;;;;;;;;;1.00;1.00;;;;;14.74;78.80;99608.78;5096115;28;8838;-60
2022/10/16 06:39:17;;;;;;;;;1.40;1.00;;;;;14.78;79.00;99612.81;5095348;28;8862;-59
2022/10/16 06:41:44;;;;;;;;;0.40;0.40;;;;;14.82;78.71;99611.50;5095762;28;8834;-59
2022/10/16 06:44:12;;;;;;;;;1.00;1.00;;;;;14.85;78.56;99605.81;5096469;28;8854;-59
2022/10/16 06:46:39;;;;;;;;;1.00;1.00;;;;;14.88;78.02;99613.56;5095697;28;8935;-59
2022/10/16 06:49:07;;;;;;;;;1.00;0.60;;;;;14.91;78.90;99607.88;5095426;28;8830;-60
2022/10/16 06:51:36;;;;;;;;;1.00;1.00;;;;;14.96;78.21;99619.81;5095199;28;8918;-59
2022/10/16 06:54:09;;;;;;;;;1.00;1.00;;;;;15.03;78.04;99622.72;5094744;28;8836;-59
2022/10/16 06:56:37;;;;;;;;;0.60;0.60;;;;;15.10;77.58;99635.31;5095326;28;8841;-59
2022/10/16 06:59:05;;;;;;;;;1.80;1.80;;;;;15.18;77.96;99623.81;5095088;28;8857;-59
2022/10/16 07:01:32;;;;;;;;;1.00;0.40;;;;;15.23;77.42;99621.47;5094819;28;8825;-59
2022/10/16 07:04:00;;;;;;;;;2.20;1.00;;;;;15.33;77.72;99627.63;5095189;28;8831;-59
2022/10/16 07:06:28;;;;;;;;;1.00;0.60;;;;;15.38;77.99;99630.66;5095586;28;8918;-59
2022/10/16 07:08:56;;;;;;;;;1.00;1.00;;;;;15.44;77.30;99635.38;5095551;28;8864;-59
2022/10/16 07:11:23;;;;;;;;;1.00;0.00;;;;;15.49;77.41;99643.81;5094853;28;8849;-59
2022/10/16 07:13:51;;;;;;;;;1.00;1.00;;;;;15.54;77.40;99662.97;5095645;28;8944;-59
2022/10/16 07:16:22;;;;;;;;;1.40;1.00;;;;;15.58;77.45;99658.94;5095613;28;8996;-60
2022/10/16 07:18:51;;;;;;;;;0.00;0.00;;;;;15.64;77.50;99658.31;5095754;28;8845;-59
2022/10/16 07:21:22;;;;;;;;;0.00;0.00;;;;;15.70;77.23;99669.25;5095947;28;8826;-60
2022/10/16 07:23:50;;;;;;;;;3.00;3.00;;;;;15.79;77.21;99681.69;5095397;28;8895;-59
2022/10/16 07:26:18;;;;;;;;;1.00;1.00;;;;;15.88;76.59;99671.84;5095312;28;8814;-59
2022/10/16 07:28:45;;;;;;;;;1.00;1.00;;;;;15.99;76.66;99685.00;5095632;28;8841;-59
2022/10/16 07:31:14;;;;;;;;;0.40;0.40;;;;;16.07;76.41;99683.16;5095155;28;8919;-60
2022/10/16 07:33:44;;;;;;;;;0.00;0.00;;;;;16.19;75.92;99684.53;5095662;28;8830;-60
2022/10/16 07:36:11;;;;;;;;;1.00;1.00;;;;;16.31;75.75;99693.97;5095061;28;8838;-60
2022/10/16 07:38:43;;;;;;;;;1.00;1.00;;;;;16.36;75.44;99689.81;5094881;28;8896;-60
2022/10/16 07:41:10;;;;;;;;;1.00;0.80;;;;;16.41;75.60;99698.22;5094788;28;8841;-59
2022/10/16 07:43:38;;;;;;;;;0.00;0.00;;;;;16.48;76.03;99699.25;5095569;28;8834;-59
2022/10/16 07:46:06;;;;;;;;;0.40;0.00;;;;;16.47;75.38;99694.88;5094903;28;8861;-60
2022/10/16 07:48:34;;;;;;;;;0.00;0.00;;;;;16.48;75.42;99704.63;5095609;28;8815;-59
2022/10/16 07:51:02;;;;;;;;;0.20;0.20;;;;;16.49;75.79;99695.53;5094811;28;8817;-60
2022/10/16 07:53:30;;;;;;;;;1.00;1.00;;;;;16.48;75.77;99701.13;5094134;28;8806;-60
2022/10/16 07:55:57;;;;;;;;;1.00;1.00;;;;;16.50;75.90;99702.59;5094426;28;8907;-60
2022/10/16 07:58:25;;;;;;;;;1.00;1.00;;;;;16.49;75.87;99706.31;5094267;28;8873;-60
2022/10/16 08:00:53;;;;;;;;;1.00;1.00;;;;;16.47;75.54;99715.56;5094277;28;8868;-59
2022/10/16 08:03:21;;;;;;;;;1.00;1.00;;;;;16.46;75.62;99706.66;5094853;28;9516;-60
2022/10/16 08:05:49;;;;;;;;;0.20;0.20;;;;;16.44;75.43;99724.78;5094670;28;8814;-60
2022/10/16 08:08:17;;;;;;;;;1.00;1.00;;;;;16.39;75.65;99721.75;5094675;28;8865;-59
2022/10/16 08:10:45;;;;;;;;;2.20;1.00;;;;;16.35;75.83;99731.09;5094429;28;8857;-60
2022/10/16 08:13:14;;;;;;;;;2.20;1.00;;;;;16.32;75.33;99734.13;5093772;28;8840;-59
2022/10/16 08:15:42;;;;;;;;;0.20;0.20;;;;;16.34;75.83;99739.34;5092919;28;8853;-61
2022/10/16 08:18:10;;;;;;;;;1.00;1.00;;;;;16.29;75.82;99747.91;5094074;28;8842;-60
2022/10/16 08:20:38;;;;;;;;;1.00;1.00;;;;;16.31;76.13;99750.41;5093514;28;8842;-60
2022/10/16 08:23:06;;;;;;;;;1.00;1.00;;;;;16.42;75.95;99752.84;5093250;28;8806;-59
2022/10/16 08:25:34;;;;;;;;;1.00;1.00;;;;;16.60;75.69;99761.63;5093019;28;8850;-60
2022/10/16 08:28:02;;;;;;;;;1.40;1.40;;;;;16.82;75.16;99748.41;5092734;28;8810;-60
2022/10/16 08:30:30;;;;;;;;;3.00;3.00;;;;;17.05;74.49;99757.50;5094142;28;8962;-59
2022/10/16 08:32:58;;;;;;;;;3.00;1.40;;;;;17.34;74.15;99756.97;5094478;28;8830;-62
2022/10/16 08:35:27;;;;;;;;;3.40;1.00;;;;;17.73;72.81;99764.19;5094677;28;8846;-60
2022/10/16 08:37:55;;;;;;;;;1.00;1.00;;;;;18.09;72.49;99753.81;5094716;28;8845;-60
2022/10/16 08:40:23;;;;;;;;;3.00;3.00;;;;;18.28;71.91;99758.81;5094891;28;8838;-60
2022/10/16 08:42:52;;;;;;;;;3.80;3.00;;;;;18.28;71.56;99759.63;5094622;28;8814;-60
2022/10/16 08:45:20;;;;;;;;;1.40;1.40;;;;;18.26;72.12;99758.13;5095264;28;9491;-59
2022/10/16 08:47:48;;;;;;;;;1.00;0.20;;;;;18.18;72.28;99775.19;5094798;28;8822;-59
2022/10/16 08:50:16;;;;;;;;;1.00;1.00;;;;;18.09;72.02;99781.63;5094451;28;8845;-59
2022/10/16 08:52:44;;;;;;;;;3.80;3.80;;;;;18.02;72.68;99783.31;5097407;28;8915;-61
2022/10/16 08:55:12;;;;;;;;;3.00;1.40;;;;;17.97;72.59;99790.22;5098578;28;8826;-60
2022/10/16 08:57:40;;;;;;;;;3.00;3.00;;;;;17.93;72.31;99792.41;5097762;28;8854;-59
2022/10/16 09:00:08;;;;;;;;;1.00;1.00;;;;;17.88;72.39;99802.91;5098398;28;9519;-59
2022/10/16 09:02:35;;;;;;;;;3.80;1.40;;;;;17.85;72.96;99788.94;5098398;28;8884;-59
2022/10/16 09:05:04;;;;;;;;;0.60;0.60;;;;;17.83;72.75;99797.16;5098261;28;8907;-60
2022/10/16 09:07:34;;;;;;;;;1.00;1.00;;;;;17.83;72.42;99807.94;5098070;28;8826;-58
2022/10/16 09:10:02;;;;;;;;;1.00;1.00;;;;;17.85;72.30;99814.00;5097897;28;8973;-59
2022/10/16 09:12:30;;;;;;;;;4.00;3.00;;;;;17.88;72.37;99810.97;5098233;28;8867;-59
2022/10/16 09:14:58;;;;;;;;;1.00;1.00;;;;;17.90;72.06;99821.59;5098281;28;8850;-59
2022/10/16 09:17:26;;;;;;;;;0.00;0.00;;;;;17.90;72.08;99819.72;5097931;28;8842;-59
2022/10/16 09:19:55;;;;;;;;;1.00;0.40;;;;;17.91;71.66;99818.72;5097612;28;8922;-60
2022/10/16 09:22:22;;;;;;;;;1.00;1.00;;;;;17.89;71.71;99827.97;5097540;28;8840;-59
2022/10/16 09:24:52;;;;;;;;;0.00;0.00;;;;;17.90;71.29;99818.91;5097334;28;8838;-59
2022/10/16 09:27:20;;;;;;;;;0.00;0.00;;;;;17.90;71.71;99824.28;5097463;28;8826;-59
2022/10/16 09:29:48;;;;;;;;;0.00;0.00;;;;;17.93;71.40;99826.63;5098031;28;9726;-61
2022/10/16 09:32:16;;;;;;;;;0.40;0.40;;;;;18.00;71.22;99825.75;5097773;28;8872;-59
2022/10/16 09:34:44;;;;;;;;;1.00;1.00;;;;;18.04;70.90;99829.81;5097213;28;8830;-59
2022/10/16 09:37:12;;;;;;;;;0.40;0.40;;;;;18.06;70.70;99824.25;5096673;28;8834;-59
2022/10/16 09:39:40;;;;;;;;;0.00;0.00;;;;;18.08;70.61;99828.44;5097464;28;8858;-59
2022/10/16 09:42:08;;;;;;;;;0.40;0.00;;;;;18.09;70.25;99830.13;5097666;28;8846;-59
2022/10/16 09:44:36;;;;;;;;;1.00;1.00;;;;;18.21;70.00;99828.75;5097128;28;8858;-59
2022/10/16 09:47:04;;;;;;;;;0.00;0.00;;;;;18.26;70.12;99842.56;5097384;28;8961;-58
2022/10/16 09:49:32;;;;;;;;;0.00;0.00;;;;;18.30;69.71;99837.69;5097309;28;8822;-59
2022/10/16 09:52:01;;;;;;;;;0.60;0.00;;;;;18.46;69.72;99838.47;5097890;28;8837;-60
2022/10/16 09:54:28;;;;;;;;;0.40;0.40;;;;;18.71;68.95;99845.44;5097448;28;8968;-59
2022/10/16 09:56:56;;;;;;;;;0.40;0.40;;;;;18.99;68.76;99840.41;5097046;28;8873;-60
2022/10/16 09:59:26;;;;;;;;;0.00;0.00;;;;;19.55;67.11;99846.28;5096550;28;8898;-61
2022/10/16 10:01:55;;;;;;;;;0.00;0.00;;;;;20.15;65.89;99852.50;5097162;28;9588;-60
2022/10/16 10:04:23;;;;;;;;;0.00;0.00;;;;;20.46;64.87;99839.63;5096466;28;8869;-60
2022/10/16 10:06:50;;;;;;;;;0.60;0.60;;;;;20.54;64.65;99836.81;5096474;28;8806;-59
2022/10/16 10:09:19;;;;;;;;;1.00;1.00;;;;;20.66;64.59;99834.47;5096872;28;8838;-60
2022/10/16 10:11:46;;;;;;;;;0.00;0.00;;;;;20.79;64.29;99840.88;5097130;28;9716;-60
2022/10/16 10:14:15;;;;;;;;;0.00;0.00;;;;;20.77;64.51;99836.72;5096698;28;8818;-60
2022/10/16 10:16:43;;;;;;;;;0.00;0.00;;;;;20.59;64.89;99850.66;5096744;28;8957;-60
2022/10/16 10:19:11;;;;;;;;;0.00;0.00;;;;;20.46;64.76;99852.34;5097254;28;8856;-60
2022/10/16 10:21:39;;;;;;;;;0.00;0.00;;;;;20.45;64.92;99843.38;5096516;28;8829;-60
2022/10/16 10:24:07;;;;;;;;;0.00;0.00;;;;;20.45;65.14;99847.94;5096354;28;8837;-60
2022/10/16 10:26:36;;;;;;;;;0.00;0.00;;;;;20.54;64.61;99863.06;5096581;28;9622;-60
2022/10/16 10:29:09;;;;;;;;;0.00;0.00;;;;;20.72;64.58;99856.25;5095795;28;8826;-60
2022/10/16 10:31:37;;;;;;;;;1.00;1.00;;;;;20.98;64.59;99856.59;5096777;28;8868;-62
2022/10/16 10:34:04;;;;;;;;;1.00;1.00;;;;;21.34;64.24;99852.00;5096636;28;8818;-60
2022/10/16 10:36:33;;;;;;;;;1.00;1.00;;;;;21.87;62.58;99852.31;5097288;28;8833;-60
2022/10/16 10:39:02;;;;;;;;;0.80;0.80;;;;;22.54;60.54;99830.91;5097502;28;9496;-62
2022/10/16 10:41:30;;;;;;;;;0.00;0.00;;;;;22.86;60.64;99839.22;5097297;28;8915;-59
2022/10/16 10:43:58;;;;;;;;;0.00;0.00;;;;;22.76;60.96;99837.91;5096859;28;8833;-60
2022/10/16 10:46:26;;;;;;;;;0.00;0.00;;;;;22.64;61.10;99847.66;5096440;28;8865;-60
2022/10/16 10:48:54;;;;;;;;;1.00;0.20;;;;;22.56;61.15;99850.53;5096338;28;8833;-61
2022/10/16 10:51:22;;;;;;;;;0.80;0.00;;;;;22.37;62.05;99851.22;5096219;28;8830;-61
2022/10/16 10:53:50;;;;;;;;;1.00;1.00;;;;;22.11;62.25;99851.91;5095982;28;8864;-61
2022/10/16 10:56:18;;;;;;;;;0.00;0.00;;;;;21.90;63.11;99856.50;5095151;28;8861;-59
2022/10/16 10:58:47;;;;;;;;;1.00;1.00;;;;;21.60;63.42;99857.66;5094990;28;8833;-59
2022/10/16 11:01:15;;;;;;;;;0.60;0.60;;;;;21.29;63.79;99855.28;5096042;28;8834;-59
2022/10/16 11:03:43;;;;;;;;;0.00;0.00;;;;;21.08;64.67;99862.53;5095885;28;8948;-59
2022/10/16 11:06:11;;;;;;;;;1.00;1.00;;;;;20.92;64.81;99859.22;5095768;28;8830;-59
2022/10/16 11:08:39;;;;;;;;;0.20;0.20;;;;;20.87;65.06;99859.78;5095960;28;8817;-59
2022/10/16 11:11:07;;;;;;;;;1.20;1.00;;;;;20.87;64.88;99859.78;5095747;28;8833;-58
2022/10/16 11:13:35;;;;;;;;;2.00;1.80;;;;;20.88;64.87;99863.31;5094778;28;8822;-60
2022/10/16 11:16:04;;;;;;;;;1.00;1.00;;;;;20.95;64.42;99860.50;5095283;28;8853;-59
2022/10/16 11:18:32;;;;;;;;;1.00;1.00;;;;;21.04;64.49;99867.47;5095111;28;8908;-59
2022/10/16 11:21:00;;;;;;;;;1.00;1.00;;;;;21.06;64.20;99861.88;5095230;28;8962;-59
2022/10/16 11:23:29;;;;;;;;;0.40;0.40;;;;;21.04;64.59;99864.78;5095286;28;8830;-60
2022/10/16 11:25:56;;;;;;;;;0.40;0.40;;;;;21.30;64.04;99861.53;5094089;28;8986;-59
2022/10/16 11:28:25;;;;;;;;;1.00;1.00;;;;;21.75;62.87;99867.44;5093796;28;8814;-59
2022/10/16 11:30:58;;;;;;;;;1.00;1.00;;;;;22.16;62.06;99864.88;5094018;28;8861;-60
2022/10/16 11:33:25;;;;;;;;;1.00;1.00;;;;;22.23;62.01;99858.44;5093677;28;8856;-59
2022/10/16 11:35:54;;;;;;;;;0.00;0.00;;;;;22.26;61.79;99862.63;5093835;28;8830;-59
2022/10/16 11:38:21;;;;;;;;;1.00;1.00;;;;;22.29;62.04;99859.50;5093431;28;8834;-60
2022/10/16 11:40:50;;;;;;;;;0.00;0.00;;;;;22.31;62.36;99863.72;5094588;28;8900;-59
2022/10/16 11:43:18;;;;;;;;;0.40;0.40;;;;;22.23;62.24;99863.03;5094936;28;8842;-59